createdAt,value
2019-03-15T00:01:57.045Z,16.50
2019-03-15T00:04:24.445Z,16.50
2019-03-15T00:06:51.869Z,16.50
2019-03-15T00:09:19.252Z,16.50
2019-03-15T00:11:46.675Z,16.50
2019-03-15T00:14:14.106Z,16.50
2019-03-15T00:16:41.493Z,16.50
2019-03-15T00:19:08.863Z,16.40
2019-03-15T00:21:36.286Z,16.50
2019-03-15T00:24:03.695Z,16.40
2019-03-15T00:26:31.097Z,16.40
2019-03-15T00:28:58.639Z,16.40
2019-03-15T00:31:26.110Z,16.40
2019-03-15T00:33:53.506Z,16.40
2019-03-15T00:36:21.080Z,16.40
2019-03-15T00:38:48.654Z,16.40
2019-03-15T00:41:16.067Z,16.40
2019-03-15T00:43:43.520Z,16.40
2019-03-15T00:46:11.060Z,16.40
2019-03-15T00:48:38.467Z,16.40
2019-03-15T00:51:05.899Z,16.40
2019-03-15T00:53:33.402Z,16.40
2019-03-15T00:56:00.809Z,16.40
2019-03-15T00:58:28.223Z,16.40
2019-03-15T01:00:55.644Z,16.40
2019-03-15T01:03:23.040Z,16.40
2019-03-15T01:05:50.581Z,16.40
2019-03-15T01:08:17.983Z,16.40
2019-03-15T01:10:45.436Z,16.40
2019-03-15T01:13:12.988Z,16.40
2019-03-15T01:15:41.571Z,16.40
2019-03-15T01:18:09.079Z,16.40
2019-03-15T01:20:36.577Z,16.40
2019-03-15T01:23:03.971Z,16.40
2019-03-15T01:25:31.370Z,16.40
2019-03-15T01:28:01.801Z,16.40
2019-03-15T01:30:29.168Z,16.40
2019-03-15T01:32:56.617Z,16.40
2019-03-15T01:35:24.228Z,16.40
2019-03-15T01:37:51.657Z,16.40
2019-03-15T01:40:19.037Z,16.40
2019-03-15T01:42:46.568Z,16.40
2019-03-15T01:45:14.008Z,16.40
2019-03-15T01:47:41.402Z,16.40
2019-03-15T01:50:08.829Z,16.40
2019-03-15T01:52:36.211Z,16.40
2019-03-15T01:55:03.595Z,16.40
2019-03-15T01:57:31.072Z,16.40
2019-03-15T01:59:58.471Z,16.40
2019-03-15T02:02:25.878Z,16.40
2019-03-15T02:04:53.300Z,16.40
2019-03-15T02:07:20.681Z,16.40
2019-03-15T02:09:48.055Z,16.40
2019-03-15T02:12:15.487Z,16.40
2019-03-15T02:14:42.899Z,16.40
2019-03-15T02:17:10.300Z,16.40
2019-03-15T02:19:37.722Z,16.40
2019-03-15T02:22:05.106Z,16.40
2019-03-15T02:24:32.501Z,16.40
2019-03-15T02:26:59.917Z,16.40
2019-03-15T02:29:27.305Z,16.40
2019-03-15T02:31:57.729Z,16.40
2019-03-15T02:34:25.420Z,16.40
2019-03-15T02:36:52.930Z,16.40
2019-03-15T02:39:20.473Z,16.40
2019-03-15T02:41:47.922Z,16.40
2019-03-15T02:44:15.411Z,16.40
2019-03-15T02:46:42.877Z,16.40
2019-03-15T02:49:10.286Z,16.40
2019-03-15T02:51:37.960Z,16.40
2019-03-15T02:54:05.365Z,16.40
2019-03-15T02:56:32.902Z,16.40
2019-03-15T02:59:00.353Z,16.40
2019-03-15T03:01:27.768Z,16.40
2019-03-15T03:03:55.321Z,16.40
2019-03-15T03:06:22.782Z,16.40
2019-03-15T03:08:50.174Z,16.40
2019-03-15T03:11:17.616Z,16.40
2019-03-15T03:13:45.371Z,16.40
2019-03-15T03:16:12.814Z,16.40
2019-03-15T03:18:40.330Z,16.40
2019-03-15T03:21:07.771Z,16.40
2019-03-15T03:23:35.393Z,16.30
2019-03-15T03:26:02.806Z,16.30
2019-03-15T03:28:30.212Z,16.40
2019-03-15T03:30:57.674Z,16.30
2019-03-15T03:33:25.197Z,16.30
2019-03-15T03:35:52.661Z,16.30
2019-03-15T03:38:20.045Z,16.30
2019-03-15T03:40:47.466Z,16.30
2019-03-15T03:43:14.857Z,16.30
2019-03-15T03:45:42.256Z,16.30
2019-03-15T03:48:09.707Z,16.30
2019-03-15T03:50:37.117Z,16.30
2019-03-15T03:53:04.520Z,16.30
2019-03-15T03:55:31.928Z,16.30
2019-03-15T03:57:59.397Z,16.30
2019-03-15T04:00:26.783Z,16.30
2019-03-15T04:02:54.211Z,16.30
2019-03-15T04:05:22.049Z,16.30
2019-03-15T04:07:49.432Z,16.30
2019-03-15T04:10:16.837Z,16.30
2019-03-15T04:12:44.237Z,16.30
2019-03-15T04:15:11.649Z,16.30
2019-03-15T04:17:39.078Z,16.30
2019-03-15T04:20:06.476Z,16.30
2019-03-15T04:22:33.939Z,16.30
2019-03-15T04:25:01.444Z,16.30
2019-03-15T04:27:28.861Z,16.30
2019-03-15T04:29:58.980Z,16.30
2019-03-15T04:32:26.557Z,16.30
2019-03-15T04:34:54.084Z,16.30
2019-03-15T04:37:22.838Z,16.30
2019-03-15T04:39:50.476Z,16.30
2019-03-15T04:42:17.868Z,16.30
2019-03-15T04:44:45.283Z,16.30
2019-03-15T04:47:12.748Z,16.40
2019-03-15T04:49:40.140Z,16.40
2019-03-15T04:52:07.524Z,16.40
2019-03-15T04:54:34.975Z,16.40
2019-03-15T04:57:02.358Z,16.40
2019-03-15T04:59:29.753Z,16.40
2019-03-15T05:01:57.193Z,16.40
2019-03-15T05:04:24.587Z,16.40
2019-03-15T05:06:51.969Z,16.40
2019-03-15T05:09:19.408Z,16.40
2019-03-15T05:11:46.854Z,16.40
2019-03-15T05:14:14.263Z,16.40
2019-03-15T05:16:41.688Z,16.40
2019-03-15T05:19:09.072Z,16.40
2019-03-15T05:21:36.508Z,16.40
2019-03-15T05:24:03.965Z,16.40
2019-03-15T05:26:31.407Z,16.40
2019-03-15T05:28:58.794Z,16.40
2019-03-15T05:31:26.263Z,16.40
2019-03-15T05:33:53.669Z,16.40
2019-03-15T05:36:21.059Z,16.40
2019-03-15T05:38:48.443Z,16.40
2019-03-15T05:41:16.158Z,16.40
2019-03-15T05:43:43.554Z,16.40
2019-03-15T05:46:11.014Z,16.40
2019-03-15T05:48:38.531Z,16.40
2019-03-15T05:51:06.043Z,16.40
2019-03-15T05:53:33.501Z,16.40
2019-03-15T05:56:00.927Z,16.40
2019-03-15T05:58:28.311Z,16.40
2019-03-15T06:00:55.742Z,16.40
2019-03-15T06:03:23.274Z,16.40
2019-03-15T06:05:50.711Z,16.40
2019-03-15T06:08:18.135Z,16.50
2019-03-15T06:10:45.539Z,16.50
2019-03-15T06:13:12.967Z,16.50
2019-03-15T06:15:40.371Z,16.40
2019-03-15T06:18:07.905Z,16.50
2019-03-15T06:20:35.397Z,16.40
2019-03-15T06:23:02.809Z,16.50
2019-03-15T06:25:30.237Z,16.50
2019-03-15T06:27:57.636Z,16.50
2019-03-15T06:30:25.041Z,16.50
2019-03-15T06:32:52.645Z,16.50
2019-03-15T06:35:20.067Z,16.50
2019-03-15T06:37:47.554Z,16.50
2019-03-15T06:40:14.978Z,16.50
2019-03-15T06:42:42.465Z,16.50
2019-03-15T06:45:10.795Z,16.50
2019-03-15T06:47:38.226Z,16.50
2019-03-15T06:50:05.637Z,16.50
2019-03-15T06:52:33.032Z,16.50
2019-03-15T06:55:00.471Z,16.50
2019-03-15T06:57:27.924Z,16.50
2019-03-15T06:59:55.346Z,16.50
2019-03-15T07:02:22.862Z,16.50
2019-03-15T07:04:50.310Z,16.50
2019-03-15T07:07:17.797Z,16.50
2019-03-15T07:09:45.211Z,16.50
2019-03-15T07:12:12.628Z,16.50
2019-03-15T07:14:40.040Z,16.60
2019-03-15T07:17:07.474Z,16.60
2019-03-15T07:19:34.861Z,16.60
2019-03-15T07:22:02.283Z,16.70
2019-03-15T07:24:29.690Z,16.70
2019-03-15T07:26:57.093Z,16.70
2019-03-15T07:29:24.534Z,16.60
2019-03-15T07:31:52.072Z,16.60
2019-03-15T07:34:19.472Z,16.60
2019-03-15T07:36:46.902Z,16.60
2019-03-15T07:39:14.300Z,16.60
2019-03-15T07:41:41.689Z,16.60
2019-03-15T07:44:09.142Z,16.60
2019-03-15T07:46:36.630Z,16.60
2019-03-15T07:49:04.012Z,16.50
2019-03-15T07:51:31.502Z,16.50
2019-03-15T07:53:58.920Z,16.50
2019-03-15T07:56:28.676Z,16.50
2019-03-15T07:58:55.564Z,16.50
2019-03-15T08:01:23.026Z,16.50
2019-03-15T08:03:50.424Z,16.60
2019-03-15T08:06:17.833Z,16.50
2019-03-15T08:08:45.303Z,16.60
2019-03-15T08:11:12.750Z,16.60
2019-03-15T08:13:40.261Z,16.60
2019-03-15T08:16:07.782Z,16.60
2019-03-15T08:18:35.168Z,16.50
2019-03-15T08:21:02.575Z,16.60
2019-03-15T08:23:29.961Z,16.60
2019-03-15T08:25:57.347Z,16.60
2019-03-15T08:28:24.809Z,16.60
2019-03-15T08:30:52.303Z,16.60
2019-03-15T08:33:19.707Z,16.60
2019-03-15T08:35:47.256Z,16.60
2019-03-15T08:38:14.667Z,16.60
2019-03-15T08:40:42.068Z,16.50
2019-03-15T08:43:09.471Z,16.50
2019-03-15T08:45:36.927Z,16.50
2019-03-15T08:48:04.323Z,16.50
2019-03-15T08:50:31.789Z,16.50
2019-03-15T08:52:59.303Z,16.50
2019-03-15T08:55:26.779Z,16.50
2019-03-15T08:57:54.189Z,16.50
2019-03-15T09:00:21.667Z,16.50
2019-03-15T09:02:49.128Z,16.50
2019-03-15T09:05:16.698Z,16.50
2019-03-15T09:07:44.302Z,16.50
2019-03-15T09:10:21.735Z,16.50
2019-03-15T09:12:40.865Z,16.50
2019-03-15T09:15:08.294Z,16.50
2019-03-15T09:17:35.762Z,16.50
2019-03-15T09:20:03.165Z,16.50
2019-03-15T09:22:30.688Z,16.50
2019-03-15T09:24:58.111Z,16.50
2019-03-15T09:27:25.511Z,16.50
2019-03-15T09:29:52.915Z,16.50
2019-03-15T09:32:20.360Z,16.50
2019-03-15T09:34:47.815Z,16.50
2019-03-15T09:37:15.219Z,16.50
2019-03-15T09:39:42.700Z,16.50
2019-03-15T09:42:10.181Z,16.50
2019-03-15T09:44:37.771Z,16.50
2019-03-15T09:47:05.243Z,16.50
2019-03-15T09:49:32.792Z,16.50
2019-03-15T09:52:00.196Z,16.50
2019-03-15T09:54:27.659Z,16.50
2019-03-15T09:56:55.106Z,16.50
2019-03-15T09:59:22.492Z,16.50
2019-03-15T10:01:49.910Z,16.50
2019-03-15T10:04:20.292Z,16.50
2019-03-15T10:06:50.530Z,16.50
2019-03-15T10:09:17.944Z,16.60
2019-03-15T10:11:45.330Z,16.60
2019-03-15T10:14:12.804Z,16.60
2019-03-15T10:16:40.250Z,16.60
2019-03-15T10:19:07.689Z,16.60
2019-03-15T10:21:35.124Z,16.60
2019-03-15T10:24:02.561Z,16.60
2019-03-15T10:26:30.044Z,16.60
2019-03-15T10:28:57.445Z,16.60
2019-03-15T10:31:26.687Z,16.60
2019-03-15T10:33:54.401Z,16.60
2019-03-15T10:36:21.847Z,16.60
2019-03-15T10:38:49.255Z,16.60
2019-03-15T10:41:16.657Z,16.70
2019-03-15T10:43:44.232Z,16.70
2019-03-15T10:46:11.649Z,16.70
2019-03-15T10:48:39.053Z,16.70
2019-03-15T10:51:06.487Z,16.70
2019-03-15T10:53:33.894Z,16.70
2019-03-15T10:56:01.395Z,16.70
2019-03-15T10:58:29.020Z,16.70
2019-03-15T11:00:56.423Z,16.70
2019-03-15T11:03:23.798Z,16.70
2019-03-15T11:05:51.219Z,16.70
2019-03-15T11:08:18.635Z,16.80
2019-03-15T11:10:46.007Z,16.80
2019-03-15T11:13:13.434Z,16.80
2019-03-15T11:15:40.905Z,16.80
2019-03-15T11:18:08.395Z,16.80
2019-03-15T11:20:35.917Z,16.80
2019-03-15T11:23:03.396Z,16.80
2019-03-15T11:25:31.080Z,16.90
2019-03-15T11:27:58.587Z,16.90
2019-03-15T11:30:26.002Z,16.90
2019-03-15T11:32:53.395Z,16.90
2019-03-15T11:35:21.506Z,16.90
2019-03-15T11:37:49.353Z,16.90
2019-03-15T11:40:19.049Z,16.90
2019-03-15T11:42:45.929Z,16.90
2019-03-15T11:45:13.360Z,16.90
2019-03-15T11:48:01.416Z,16.90
2019-03-15T11:50:10.799Z,16.90
2019-03-15T11:52:38.287Z,16.90
2019-03-15T11:55:05.765Z,16.90
2019-03-15T11:57:33.404Z,16.90
2019-03-15T12:00:00.833Z,16.90
2019-03-15T12:02:28.336Z,16.90
2019-03-15T12:04:55.725Z,17.00
2019-03-15T12:07:23.152Z,17.00
2019-03-15T12:09:50.651Z,17.00
2019-03-15T12:12:21.521Z,17.00
2019-03-15T12:14:47.617Z,17.00
2019-03-15T12:17:15.066Z,17.00
2019-03-15T12:19:42.564Z,17.00
2019-03-15T12:22:09.974Z,17.00
2019-03-15T12:24:37.478Z,17.10
2019-03-15T12:27:04.883Z,17.10
2019-03-15T12:29:32.347Z,17.10
2019-03-15T12:31:59.804Z,17.10
2019-03-15T12:34:27.278Z,17.10
2019-03-15T12:36:54.680Z,17.10
2019-03-15T12:39:22.198Z,17.10
2019-03-15T12:41:49.687Z,17.10
2019-03-15T12:44:17.111Z,17.10
2019-03-15T12:46:44.542Z,17.10
2019-03-15T12:49:12.042Z,17.10
2019-03-15T12:51:39.548Z,17.10
2019-03-15T12:54:06.994Z,17.10
2019-03-15T12:56:34.470Z,17.10
2019-03-15T12:59:01.923Z,17.10
2019-03-15T13:01:29.373Z,17.10
2019-03-15T13:03:56.765Z,17.10
2019-03-15T13:06:24.171Z,17.10
2019-03-15T13:08:51.912Z,17.10
2019-03-15T13:11:19.346Z,17.10
2019-03-15T13:13:46.813Z,17.10
2019-03-15T13:16:14.248Z,17.10
2019-03-15T13:18:41.649Z,17.10
2019-03-15T13:21:09.075Z,17.10
2019-03-15T13:23:36.594Z,17.10
2019-03-15T13:26:03.981Z,17.10
2019-03-15T13:28:31.393Z,17.10
2019-03-15T13:30:58.805Z,17.10
2019-03-15T13:33:26.284Z,17.10
2019-03-15T13:35:53.730Z,17.10
2019-03-15T13:38:21.211Z,17.10
2019-03-15T13:40:48.626Z,17.10
2019-03-15T13:43:16.040Z,17.20
2019-03-15T13:45:43.546Z,17.20
2019-03-15T13:48:11.133Z,17.20
2019-03-15T13:50:38.550Z,17.20
2019-03-15T13:53:06.069Z,17.10
2019-03-15T13:55:33.459Z,17.20
2019-03-15T13:58:00.857Z,17.20
2019-03-15T14:00:28.348Z,17.20
2019-03-15T14:02:55.830Z,17.20
2019-03-15T14:05:23.216Z,17.20
2019-03-15T14:07:50.606Z,17.20
2019-03-15T14:10:18.025Z,17.20
2019-03-15T14:12:45.418Z,17.20
2019-03-15T14:15:13.031Z,17.20
2019-03-15T14:17:40.432Z,17.20
2019-03-15T14:20:07.813Z,17.20
2019-03-15T14:22:35.200Z,17.20
2019-03-15T14:25:02.587Z,17.20
2019-03-15T14:27:37.322Z,17.20
2019-03-15T14:29:59.124Z,17.30
2019-03-15T14:32:26.510Z,17.30
2019-03-15T14:34:53.913Z,17.30
2019-03-15T14:37:21.486Z,17.30
2019-03-15T14:39:49.170Z,17.40
2019-03-15T14:42:16.675Z,17.40
2019-03-15T14:44:44.107Z,17.40
2019-03-15T14:47:11.626Z,17.30
2019-03-15T14:49:39.031Z,17.40
2019-03-15T14:52:06.479Z,17.30
2019-03-15T14:54:33.976Z,17.40
2019-03-15T14:57:01.382Z,17.40
2019-03-15T14:59:28.864Z,17.40
2019-03-15T15:01:56.351Z,17.30
2019-03-15T15:04:23.943Z,17.40
2019-03-15T15:06:51.448Z,17.40
2019-03-15T15:09:18.967Z,17.40
2019-03-15T15:11:46.355Z,17.40
2019-03-15T15:14:13.759Z,17.40
2019-03-15T15:16:41.203Z,17.40
2019-03-15T15:19:08.629Z,17.40
2019-03-15T15:21:36.049Z,17.40
2019-03-15T15:24:03.746Z,17.40
2019-03-15T15:26:31.148Z,17.40
2019-03-15T15:28:58.578Z,17.40
2019-03-15T15:31:26.144Z,17.40
2019-03-15T15:33:53.700Z,17.40
2019-03-15T15:36:23.289Z,17.40
2019-03-15T15:38:50.824Z,17.50
2019-03-15T15:41:18.243Z,17.40
2019-03-15T15:43:45.678Z,17.40
2019-03-15T15:46:13.099Z,17.40
2019-03-15T15:48:40.512Z,17.50
2019-03-15T15:51:08.027Z,17.50
2019-03-15T15:53:35.455Z,17.50
2019-03-15T15:56:02.905Z,17.50
2019-03-15T15:58:30.348Z,17.50
2019-03-15T16:00:57.813Z,17.50
2019-03-15T16:03:25.220Z,17.50
2019-03-15T16:05:52.628Z,17.40
2019-03-15T16:08:20.059Z,17.40
2019-03-15T16:10:50.571Z,17.40
2019-03-15T16:13:18.035Z,17.40
2019-03-15T16:15:45.467Z,17.40
2019-03-15T16:18:12.869Z,17.40
2019-03-15T16:20:43.003Z,17.40
2019-03-15T16:23:10.542Z,17.40
2019-03-15T16:25:38.019Z,17.40
2019-03-15T16:28:06.607Z,17.40
2019-03-15T16:30:34.083Z,17.30
2019-03-15T16:33:06.059Z,17.30
2019-03-15T16:35:30.946Z,17.30
2019-03-15T16:37:58.478Z,17.30
2019-03-15T16:40:25.895Z,17.30
2019-03-15T16:42:53.668Z,17.30
2019-03-15T16:45:21.119Z,17.30
2019-03-15T16:47:48.596Z,17.30
2019-03-15T16:50:15.996Z,17.30
2019-03-15T16:52:43.509Z,17.30
2019-03-15T16:55:11.000Z,17.30
2019-03-15T16:57:38.452Z,17.30
2019-03-15T17:00:06.012Z,17.30
2019-03-15T17:02:33.473Z,17.30
2019-03-15T17:05:00.889Z,17.30
2019-03-15T17:07:28.331Z,17.30
2019-03-15T17:09:55.722Z,17.30
2019-03-15T17:12:23.133Z,17.30
2019-03-15T17:14:50.590Z,17.30
2019-03-15T17:17:18.017Z,17.30
2019-03-15T17:19:45.503Z,17.30
2019-03-15T17:22:12.939Z,17.30
2019-03-15T17:24:40.656Z,17.30
2019-03-15T17:27:08.148Z,17.20
2019-03-15T17:29:35.921Z,17.20
2019-03-15T17:32:03.358Z,17.20
2019-03-15T17:34:30.739Z,17.10
2019-03-15T17:37:06.641Z,17.10
2019-03-15T17:39:27.789Z,17.10
2019-03-15T17:41:55.252Z,17.00
2019-03-15T17:44:22.734Z,17.00
2019-03-15T17:46:50.115Z,16.80
2019-03-15T17:49:17.571Z,16.90
2019-03-15T17:51:44.973Z,16.80
2019-03-15T17:54:12.376Z,16.80
2019-03-15T17:56:39.833Z,16.70
2019-03-15T17:59:12.326Z,16.70
2019-03-15T18:01:36.503Z,16.70
2019-03-15T18:04:04.008Z,16.60
2019-03-15T18:06:31.855Z,16.60
2019-03-15T18:08:59.285Z,16.60
2019-03-15T18:11:26.750Z,16.50
2019-03-15T18:13:54.312Z,16.50
2019-03-15T18:16:21.812Z,16.40
2019-03-15T18:18:49.273Z,16.40
2019-03-15T18:21:16.946Z,16.40
2019-03-15T18:23:44.423Z,16.40
2019-03-15T18:26:11.969Z,16.30
2019-03-15T18:28:39.378Z,16.30
2019-03-15T18:31:06.758Z,16.30
2019-03-15T18:33:34.196Z,16.30
2019-03-15T18:36:01.588Z,16.30
2019-03-15T18:38:29.013Z,16.30
2019-03-15T18:40:56.432Z,16.30
2019-03-15T18:43:23.839Z,16.60
2019-03-15T18:45:51.244Z,16.30
2019-03-15T18:48:18.837Z,16.30
2019-03-15T18:50:46.272Z,16.30
2019-03-15T18:53:13.672Z,16.30
2019-03-15T18:55:41.156Z,16.30
2019-03-15T18:58:08.580Z,16.30
2019-03-15T19:00:36.007Z,16.20
2019-03-15T19:03:03.437Z,16.30
2019-03-15T19:05:30.944Z,16.30
2019-03-15T19:10:26.264Z,16.20
2019-03-15T19:12:53.714Z,16.30
2019-03-15T19:15:21.147Z,16.30
2019-03-15T19:17:48.592Z,16.20
2019-03-15T19:20:16.075Z,16.20
2019-03-15T19:22:43.475Z,16.20
2019-03-15T19:25:11.064Z,16.20
2019-03-15T19:27:38.494Z,16.20
2019-03-15T19:30:05.973Z,16.20
2019-03-15T19:37:29.714Z,16.20
2019-03-15T19:39:57.399Z,16.30
2019-03-15T19:42:24.905Z,16.30
2019-03-15T19:44:52.387Z,16.30
2019-03-15T19:47:19.990Z,16.30
2019-03-15T20:04:39.081Z,16.10
2019-03-15T20:07:06.527Z,16.10
2019-03-15T20:09:33.999Z,16.10
2019-03-15T20:12:01.475Z,16.10
2019-03-15T20:14:28.865Z,16.10
2019-03-15T20:16:56.435Z,16.10
2019-03-15T20:19:23.855Z,16.10
2019-03-15T20:21:51.339Z,16.10
2019-03-15T20:24:18.827Z,16.00
2019-03-15T20:26:46.370Z,16.00
2019-03-15T20:29:13.787Z,16.00
2019-03-15T20:31:41.240Z,16.00
2019-03-15T20:34:08.643Z,16.00
2019-03-15T20:36:36.073Z,15.90
2019-03-15T20:39:04.065Z,15.90
2019-03-15T20:41:31.632Z,15.90
2019-03-15T20:44:00.588Z,15.90
2019-03-15T20:46:35.568Z,15.90
2019-03-15T20:48:57.464Z,15.80
2019-03-15T20:51:25.054Z,15.80
2019-03-15T20:53:52.493Z,15.80
2019-03-15T20:56:19.913Z,15.80
2019-03-15T20:58:47.364Z,15.80
2019-03-15T21:01:14.851Z,15.80
2019-03-15T21:03:55.174Z,15.80
2019-03-15T21:06:11.720Z,15.80
2019-03-15T21:08:39.158Z,15.80
2019-03-15T21:11:06.560Z,15.80
2019-03-15T21:13:34.201Z,15.80
2019-03-15T21:16:01.811Z,15.80
2019-03-15T21:18:29.227Z,15.70
2019-03-15T21:23:44.699Z,15.80
2019-03-15T21:26:12.188Z,15.70
2019-03-15T21:28:42.904Z,15.70
2019-03-15T21:31:10.565Z,15.70
2019-03-15T21:33:37.982Z,15.70
2019-03-15T21:36:05.398Z,15.70
2019-03-15T21:38:32.879Z,15.70
2019-03-15T21:41:00.677Z,15.70
2019-03-15T21:43:28.149Z,15.70
2019-03-15T21:45:55.572Z,15.70
2019-03-15T21:48:23.025Z,15.60
2019-03-15T21:50:50.423Z,15.60
2019-03-15T21:53:17.882Z,15.60
2019-03-15T21:55:45.381Z,15.60
2019-03-15T21:58:12.786Z,15.60
2019-03-15T22:00:40.646Z,15.60
2019-03-15T22:03:08.132Z,15.50
2019-03-15T22:05:35.781Z,15.50
2019-03-15T22:08:03.216Z,15.50
2019-03-15T22:10:30.850Z,15.50
2019-03-15T22:12:58.342Z,15.50
2019-03-15T22:15:25.819Z,15.50
2019-03-15T22:17:53.417Z,15.50
2019-03-15T22:20:21.038Z,15.50
2019-03-15T22:22:48.448Z,15.40
2019-03-15T22:25:15.947Z,15.40
2019-03-15T22:27:43.438Z,15.40
2019-03-15T22:30:10.967Z,15.50
2019-03-15T22:32:38.412Z,15.50
2019-03-15T22:35:05.941Z,15.60
2019-03-15T22:37:33.701Z,15.70
2019-03-15T22:40:01.667Z,15.70
2019-03-15T22:42:29.179Z,15.80
2019-03-15T22:44:58.981Z,15.80
2019-03-15T22:47:26.418Z,15.80
2019-03-15T22:49:53.808Z,15.90
2019-03-15T22:52:21.297Z,15.90
2019-03-15T22:54:48.826Z,15.90
2019-03-15T22:57:16.298Z,15.90
2019-03-15T22:59:43.679Z,15.90
2019-03-15T23:02:11.155Z,15.80
2019-03-15T23:04:38.536Z,15.80
2019-03-15T23:07:05.965Z,15.80
2019-03-15T23:09:33.387Z,15.80
2019-03-15T23:12:00.827Z,15.80
2019-03-15T23:14:28.239Z,15.80
2019-03-15T23:16:55.668Z,15.80
2019-03-15T23:19:23.209Z,15.80
2019-03-15T23:21:50.652Z,15.80
2019-03-15T23:24:18.162Z,15.80
2019-03-15T23:26:45.613Z,15.80
2019-03-15T23:29:13.174Z,15.80
2019-03-15T23:31:43.762Z,15.80
2019-03-15T23:34:09.824Z,15.80
2019-03-15T23:36:37.218Z,15.80
2019-03-15T23:39:04.564Z,15.80
2019-03-15T23:41:32.073Z,15.80
2019-03-15T23:43:59.492Z,15.80
2019-03-15T23:46:26.980Z,15.80
2019-03-15T23:48:54.454Z,15.80
2019-03-15T23:51:21.913Z,15.80
2019-03-15T23:53:49.320Z,15.80
2019-03-15T23:56:16.744Z,15.80
2019-03-15T23:58:44.251Z,15.80
